Time,TemperatureF,DewpointF,PressureIn,WindDirection,WindDirectionDegrees,WindSpeedMPH,WindSpeedGustMPH,Humidity,HourlyPrecipIn,Conditions,Clouds,dailyrainin,SoftwareType,DateUTC
2013-03-06 00:00:00,49.8,44.8,29.97,ESE,113,2.0,5.0,83,0.00,,,0.00,Wunderground v.1.15,2013-03-06 08:00:00,
2013-03-06 00:05:00,49.9,44.6,29.97,ESE,120,0.0,5.0,82,0.00,,,0.00,Wunderground v.1.15,2013-03-06 08:05:00,
2013-03-06 00:10:00,49.9,44.6,29.97,NNE,29,0.0,4.0,82,0.00,,,0.00,Wunderground v.1.15,2013-03-06 08:10:00,
2013-03-06 00:15:00,50.1,44.8,29.97,East,100,3.0,7.0,82,0.00,,,0.00,Wunderground v.1.15,2013-03-06 08:15:00,
2013-03-06 00:20:00,50.1,44.8,29.97,East,96,0.0,2.0,82,0.00,,,0.00,Wunderground v.1.15,2013-03-06 08:20:00,
2013-03-06 00:25:00,50.1,44.8,29.97,East,79,3.0,5.0,82,0.00,,,0.00,Wunderground v.1.15,2013-03-06 08:25:00,
2013-03-06 00:30:00,49.9,45.3,29.97,ESE,106,2.0,2.0,84,0.00,,,0.00,Wunderground v.1.15,2013-03-06 08:30:00,
2013-03-06 00:35:00,49.8,45.5,29.97,ESE,107,0.0,2.0,85,0.00,,,0.00,Wunderground v.1.15,2013-03-06 08:35:00,
2013-03-06 00:40:00,49.5,45.5,29.97,ESE,107,0.0,2.0,86,0.00,,,0.00,Wunderground v.1.15,2013-03-06 08:40:00,
2013-03-06 00:45:00,49.4,46.0,29.98,ESE,107,0.0,2.0,88,0.00,,,0.00,Wunderground v.1.15,2013-03-06 08:45:00,
2013-03-06 00:50:00,49.2,46.1,29.98,ESE,107,0.0,0.0,89,0.00,,,0.01,Wunderground v.1.15,2013-03-06 08:50:00,
2013-03-06 00:55:00,49.1,46.3,29.98,ESE,106,0.0,3.0,90,0.00,,,0.01,Wunderground v.1.15,2013-03-06 08:55:00,
2013-03-06 01:00:00,48.6,46.1,29.97,East,97,1.0,2.0,91,0.00,,,0.01,Wunderground v.1.15,2013-03-06 09:00:00,
2013-03-06 01:05:00,48.5,46.3,29.97,SE,130,0.0,2.0,92,0.00,,,0.01,Wunderground v.1.15,2013-03-06 09:05:00,
2013-03-06 01:10:00,48.3,46.4,29.97,ESE,107,0.0,3.0,93,0.00,,,0.01,Wunderground v.1.15,2013-03-06 09:10:00,
2013-03-06 01:15:00,48.2,46.6,29.98,East,101,0.0,4.0,94,0.00,,,0.02,Wunderground v.1.15,2013-03-06 09:15:00,
2013-03-06 01:20:00,47.9,46.5,29.98,SE,130,1.0,2.0,95,0.00,,,0.02,Wunderground v.1.15,2013-03-06 09:20:00,
2013-03-06 01:25:00,47.7,46.3,29.98,ENE,75,1.0,4.0,95,0.00,,,0.02,Wunderground v.1.15,2013-03-06 09:25:00,
2013-03-06 01:30:00,47.6,46.5,29.97,ENE,73,2.0,2.0,96,0.00,,,0.02,Wunderground v.1.15,2013-03-06 09:30:00,
2013-03-06 01:35:00,47.6,46.5,29.97,East,101,1.0,4.0,96,0.00,,,0.03,Wunderground v.1.15,2013-03-06 09:35:00,
2013-03-06 01:40:00,47.4,46.6,29.97,ENE,72,0.0,2.0,97,0.00,,,0.03,Wunderground v.1.15,2013-03-06 09:40:00,
2013-03-06 01:45:00,47.3,46.8,29.97,East,82,0.0,4.0,98,0.00,,,0.03,Wunderground v.1.15,2013-03-06 09:45:00,
2013-03-06 01:50:00,47.3,47.0,29.97,ESE,115,3.0,3.0,99,0.04,,,0.04,Wunderground v.1.15,2013-03-06 09:50:00,
2013-03-06 01:55:00,47.3,47.0,29.97,East,93,1.0,7.0,99,0.12,,,0.05,Wunderground v.1.15,2013-03-06 09:55:00,
2013-03-06 02:00:00,47.3,47.0,29.97,SSE,150,0.0,2.0,99,0.08,,,0.05,Wunderground v.1.15,2013-03-06 10:00:00,
2013-03-06 02:05:00,47.3,47.3,29.97,East,91,2.0,6.0,100,0.07,,,0.06,Wunderground v.1.15,2013-03-06 10:05:00,
2013-03-06 02:10:00,47.3,47.3,29.97,NE,47,3.0,3.0,100,0.07,,,0.06,Wunderground v.1.15,2013-03-06 10:10:00,
2013-03-06 02:15:00,47.1,47.1,29.97,ESE,122,2.0,7.0,100,0.04,,,0.06,Wunderground v.1.15,2013-03-06 10:15:00,
2013-03-06 02:20:00,47.1,47.1,29.97,East,91,2.0,3.0,100,0.00,,,0.06,Wunderground v.1.15,2013-03-06 10:20:00,
2013-03-06 02:25:00,47.1,47.1,29.97,ESE,107,0.0,4.0,100,0.00,,,0.07,Wunderground v.1.15,2013-03-06 10:25:00,
2013-03-06 02:30:00,47.1,47.1,29.97,SE,136,2.0,5.0,100,0.00,,,0.07,Wunderground v.1.15,2013-03-06 10:30:00,
2013-03-06 02:35:00,47.1,47.1,29.97,NNE,15,0.0,5.0,100,0.00,,,0.07,Wunderground v.1.15,2013-03-06 10:35:00,
2013-03-06 02:40:00,47.1,47.1,29.97,East,101,3.0,3.0,100,0.00,,,0.07,Wunderground v.1.15,2013-03-06 10:40:00,
2013-03-06 02:45:00,47.1,47.1,29.96,East,86,2.0,5.0,100,0.00,,,0.07,Wunderground v.1.15,2013-03-06 10:45:00,
2013-03-06 02:50:00,47.0,47.0,29.96,SE,124,1.0,2.0,100,0.00,,,0.07,Wunderground v.1.15,2013-03-06 10:50:00,
2013-03-06 02:55:00,47.1,47.1,29.96,ESE,117,0.0,3.0,100,0.00,,,0.07,Wunderground v.1.15,2013-03-06 10:55:00,
2013-03-06 03:00:00,47.1,47.1,29.96,East,98,1.0,2.0,100,0.00,,,0.08,Wunderground v.1.15,2013-03-06 11:00:00,
2013-03-06 03:05:00,47.0,47.0,29.96,ENE,76,3.0,6.0,100,0.00,,,0.08,Wunderground v.1.15,2013-03-06 11:05:00,
2013-03-06 03:10:00,46.8,46.8,29.96,ESE,103,3.0,3.0,100,0.00,,,0.08,Wunderground v.1.15,2013-03-06 11:10:00,
2013-03-06 03:15:00,46.8,46.8,29.96,ESE,112,4.0,6.0,100,0.00,,,0.08,Wunderground v.1.15,2013-03-06 11:15:00,
2013-03-06 03:20:00,46.8,46.8,29.96,ESE,105,2.0,2.0,100,0.04,,,0.09,Wunderground v.1.15,2013-03-06 11:20:00,
2013-03-06 03:25:00,46.8,46.8,29.96,East,89,1.0,5.0,100,0.04,,,0.09,Wunderground v.1.15,2013-03-06 11:25:00,
2013-03-06 03:30:00,46.7,46.7,29.97,ENE,77,3.0,4.0,100,0.04,,,0.09,Wunderground v.1.15,2013-03-06 11:30:00,
2013-03-06 03:35:00,46.7,46.7,29.97,North,356,0.0,6.0,100,0.00,,,0.09,Wunderground v.1.15,2013-03-06 11:35:00,
2013-03-06 03:40:00,46.7,46.7,29.97,East,98,4.0,4.0,100,0.00,,,0.09,Wunderground v.1.15,2013-03-06 11:40:00,
2013-03-06 03:45:00,47.0,47.0,29.96,ESE,108,1.0,7.0,100,0.00,,,0.10,Wunderground v.1.15,2013-03-06 11:45:00,
2013-03-06 03:50:00,47.1,47.1,29.96,ESE,110,4.0,8.0,100,0.00,,,0.10,Wunderground v.1.15,2013-03-06 11:50:00,
2013-03-06 03:55:00,47.3,47.3,29.96,East,97,3.0,14.0,100,0.00,,,0.10,Wunderground v.1.15,2013-03-06 11:55:00,
2013-03-06 04:00:00,47.4,47.4,29.95,ESE,115,4.0,5.0,100,0.00,,,0.10,Wunderground v.1.15,2013-03-06 12:00:00,
2013-03-06 04:05:00,47.4,47.4,29.95,ESE,105,4.0,6.0,100,0.00,,,0.10,Wunderground v.1.15,2013-03-06 12:05:00,
2013-03-06 04:10:00,47.4,47.4,29.95,East,95,4.0,9.0,100,0.00,,,0.10,Wunderground v.1.15,2013-03-06 12:10:00,
2013-03-06 04:15:00,47.4,47.4,29.95,SE,126,2.0,9.0,100,0.00,,,0.10,Wunderground v.1.15,2013-03-06 12:15:00,
2013-03-06 04:20:00,47.4,47.4,29.95,ESE,110,5.0,5.0,100,0.00,,,0.10,Wunderground v.1.15,2013-03-06 12:20:00,
2013-03-06 04:25:00,47.4,47.4,29.95,East,91,3.0,10.0,100,0.00,,,0.10,Wunderground v.1.15,2013-03-06 12:25:00,
2013-03-06 04:30:00,47.4,47.4,29.95,ENE,75,2.0,7.0,100,0.00,,,0.10,Wunderground v.1.15,2013-03-06 12:30:00,
2013-03-06 04:35:00,47.6,47.6,29.95,SW,227,2.0,9.0,100,0.00,,,0.10,Wunderground v.1.15,2013-03-06 12:35:00,
2013-03-06 04:40:00,47.6,47.6,29.95,East,93,2.0,5.0,100,0.00,,,0.10,Wunderground v.1.15,2013-03-06 12:40:00,
2013-03-06 04:45:00,47.7,47.7,29.95,ENE,66,2.0,9.0,100,0.00,,,0.10,Wunderground v.1.15,2013-03-06 12:45:00,
2013-03-06 04:50:00,47.7,47.7,29.95,NE,55,2.0,4.0,100,0.00,,,0.11,Wunderground v.1.15,2013-03-06 12:50:00,
2013-03-06 04:55:00,47.7,47.7,29.95,NE,46,1.0,6.0,100,0.00,,,0.11,Wunderground v.1.15,2013-03-06 12:55:00,
2013-03-06 05:00:00,47.7,47.7,29.96,ENE,65,0.0,4.0,100,0.00,,,0.11,Wunderground v.1.15,2013-03-06 13:00:00,
2013-03-06 05:05:00,47.6,47.6,29.96,ENE,67,4.0,5.0,100,0.00,,,0.11,Wunderground v.1.15,2013-03-06 13:05:00,
2013-03-06 05:10:00,47.6,47.6,29.96,NE,41,1.0,8.0,100,0.00,,,0.12,Wunderground v.1.15,2013-03-06 13:10:00,
2013-03-06 05:15:00,47.6,47.6,29.96,SSE,168,3.0,8.0,100,0.15,,,0.13,Wunderground v.1.15,2013-03-06 13:15:00,
2013-03-06 05:20:00,47.6,47.6,29.96,East,100,0.0,3.0,100,0.21,,,0.15,Wunderground v.1.15,2013-03-06 13:20:00,
2013-03-06 05:25:00,47.6,47.6,29.96,East,98,2.0,5.0,100,0.13,,,0.16,Wunderground v.1.15,2013-03-06 13:25:00,
2013-03-06 05:30:00,47.6,47.6,29.97,ENE,63,1.0,3.0,100,0.07,,,0.16,Wunderground v.1.15,2013-03-06 13:30:00,
2013-03-06 05:35:00,47.6,47.6,29.97,East,82,3.0,6.0,100,0.05,,,0.17,Wunderground v.1.15,2013-03-06 13:35:00,
2013-03-06 05:41:00,47.6,47.6,29.97,NW,323,0.0,5.0,100,0.05,,,0.17,Wunderground v.1.15,2013-03-06 13:41:00,
2013-03-06 05:46:00,47.6,47.6,29.97,SE,124,2.0,9.0,100,0.05,,,0.17,Wunderground v.1.15,2013-03-06 13:46:00,
2013-03-06 05:51:00,47.6,47.6,29.97,East,92,4.0,4.0,100,0.04,,,0.17,Wunderground v.1.15,2013-03-06 13:51:00,
2013-03-06 05:56:00,47.6,47.6,29.97,SSE,150,1.0,4.0,100,0.00,,,0.17,Wunderground v.1.15,2013-03-06 13:56:00,
2013-03-06 06:01:00,47.6,47.6,29.97,North,351,3.0,4.0,100,0.00,,,0.17,Wunderground v.1.15,2013-03-06 14:01:00,
2013-03-06 06:06:00,47.6,47.6,29.97,ESE,109,2.0,5.0,100,0.00,,,0.17,Wunderground v.1.15,2013-03-06 14:06:00,
2013-03-06 06:11:00,47.7,47.7,29.97,NE,53,2.0,2.0,100,0.00,,,0.17,Wunderground v.1.15,2013-03-06 14:11:00,
2013-03-06 06:16:00,47.7,47.7,29.97,ESE,105,3.0,5.0,100,0.00,,,0.18,Wunderground v.1.15,2013-03-06 14:16:00,
2013-03-06 06:21:00,47.7,47.7,29.97,SE,124,4.0,6.0,100,0.00,,,0.18,Wunderground v.1.15,2013-03-06 14:21:00,
2013-03-06 06:26:00,47.9,47.9,29.97,East,80,4.0,6.0,100,0.00,,,0.18,Wunderground v.1.15,2013-03-06 14:26:00,
2013-03-06 06:31:00,47.9,47.9,29.98,ENE,69,1.0,2.0,100,0.00,,,0.18,Wunderground v.1.15,2013-03-06 14:31:00,
2013-03-06 06:36:00,47.7,47.7,29.98,East,98,2.0,9.0,100,0.00,,,0.19,Wunderground v.1.15,2013-03-06 14:36:00,
2013-03-06 06:41:00,47.9,47.9,29.98,SSE,155,2.0,7.0,100,0.07,,,0.20,Wunderground v.1.15,2013-03-06 14:41:00,
2013-03-06 06:46:00,47.9,47.9,29.98,East,100,5.0,7.0,100,0.16,,,0.21,Wunderground v.1.15,2013-03-06 14:46:00,
2013-03-06 06:51:00,47.9,47.9,29.98,NE,40,4.0,5.0,100,0.17,,,0.23,Wunderground v.1.15,2013-03-06 14:51:00,
2013-03-06 06:56:00,47.9,47.9,29.98,East,79,2.0,11.0,100,0.07,,,0.23,Wunderground v.1.15,2013-03-06 14:56:00,
2013-03-06 07:01:00,47.9,47.9,29.99,East,101,2.0,5.0,100,0.23,,,0.25,Wunderground v.1.15,2013-03-06 15:01:00,
2013-03-06 07:06:00,48.0,48.0,29.99,East,98,2.0,5.0,100,0.32,,,0.28,Wunderground v.1.15,2013-03-06 15:06:00,
2013-03-06 07:11:00,48.0,48.0,29.99,ENE,78,1.0,4.0,100,0.10,,,0.28,Wunderground v.1.15,2013-03-06 15:11:00,
2013-03-06 07:16:00,48.0,48.0,29.99,SE,129,1.0,7.0,100,0.10,,,0.29,Wunderground v.1.15,2013-03-06 15:16:00,
2013-03-06 07:21:00,48.0,48.0,29.99,East,100,1.0,2.0,100,0.06,,,0.29,Wunderground v.1.15,2013-03-06 15:21:00,
2013-03-06 07:26:00,48.2,48.2,29.99,East,79,0.0,5.0,100,0.06,,,0.30,Wunderground v.1.15,2013-03-06 15:26:00,
2013-03-06 07:31:00,48.3,48.3,30.00,ESE,111,1.0,5.0,100,0.06,,,0.30,Wunderground v.1.15,2013-03-06 15:31:00,
2013-03-06 07:36:00,48.5,48.5,30.00,ENE,74,0.0,6.0,100,0.04,,,0.30,Wunderground v.1.15,2013-03-06 15:36:00,
2013-03-06 07:41:00,48.6,48.6,30.00,ENE,64,1.0,4.0,100,0.00,,,0.30,Wunderground v.1.15,2013-03-06 15:41:00,
2013-03-06 07:46:00,48.6,48.6,29.99,ESE,103,2.0,4.0,100,0.00,,,0.30,Wunderground v.1.15,2013-03-06 15:46:00,
2013-03-06 07:51:00,48.8,48.8,29.99,ESE,109,2.0,6.0,100,0.00,,,0.30,Wunderground v.1.15,2013-03-06 15:51:00,
2013-03-06 07:56:00,48.8,48.8,29.99,ENE,63,0.0,7.0,100,0.00,,,0.30,Wunderground v.1.15,2013-03-06 15:56:00,
2013-03-06 08:01:00,48.8,48.8,30.00,North,0,1.0,2.0,100,0.63,,,0.33,Wunderground v.1.15,2013-03-06 16:01:00,
2013-03-06 08:06:00,48.8,48.8,30.00,ENE,75,2.0,2.0,100,0.11,,,0.33,Wunderground v.1.15,2013-03-06 16:06:00,
2013-03-06 08:11:00,48.9,48.9,30.00,ENE,62,3.0,6.0,100,0.06,,,0.33,Wunderground v.1.15,2013-03-06 16:11:00,
2013-03-06 08:16:00,49.2,49.2,30.00,East,94,3.0,7.0,100,0.04,,,0.33,Wunderground v.1.15,2013-03-06 16:16:00,
2013-03-06 08:21:00,49.2,49.2,30.00,ENE,70,2.0,5.0,100,0.00,,,0.33,Wunderground v.1.15,2013-03-06 16:21:00,
2013-03-06 08:26:00,49.2,49.2,30.00,ENE,68,2.0,6.0,100,0.00,,,0.33,Wunderground v.1.15,2013-03-06 16:26:00,
2013-03-06 08:31:00,49.4,49.4,30.01,SE,127,0.0,3.0,100,0.00,,,0.33,Wunderground v.1.15,2013-03-06 16:31:00,
2013-03-06 08:36:00,49.8,49.8,30.01,ENE,72,1.0,4.0,100,0.00,,,0.33,Wunderground v.1.15,2013-03-06 16:36:00,
2013-03-06 08:41:00,49.9,49.9,30.01,East,96,3.0,5.0,100,0.00,,,0.33,Wunderground v.1.15,2013-03-06 16:41:00,
2013-03-06 08:46:00,50.1,50.1,30.01,ENE,72,3.0,7.0,100,0.00,,,0.33,Wunderground v.1.15,2013-03-06 16:46:00,
2013-03-06 08:51:00,50.2,50.2,30.01,ENE,58,4.0,5.0,100,0.00,,,0.33,Wunderground v.1.15,2013-03-06 16:51:00,
2013-03-06 08:56:00,50.2,50.2,30.01,East,95,1.0,5.0,100,0.00,,,0.34,Wunderground v.1.15,2013-03-06 16:56:00,
2013-03-06 09:01:00,50.1,50.1,30.02,ESE,113,4.0,4.0,100,0.29,,,0.36,Wunderground v.1.15,2013-03-06 17:01:00,
2013-03-06 09:06:00,50.1,50.1,30.02,ENE,57,2.0,5.0,100,0.25,,,0.38,Wunderground v.1.15,2013-03-06 17:06:00,
2013-03-06 09:11:00,50.1,50.1,30.02,North,354,0.0,1.0,100,0.24,,,0.40,Wunderground v.1.15,2013-03-06 17:11:00,
2013-03-06 09:16:00,49.9,49.9,30.03,East,97,1.0,4.0,100,0.08,,,0.40,Wunderground v.1.15,2013-03-06 17:16:00,
2013-03-06 09:21:00,49.9,49.9,30.03,ESE,112,2.0,6.0,100,0.05,,,0.40,Wunderground v.1.15,2013-03-06 17:21:00,
2013-03-06 09:26:00,50.1,50.1,30.03,ESE,102,1.0,7.0,100,0.00,,,0.40,Wunderground v.1.15,2013-03-06 17:26:00,
2013-03-06 09:31:00,50.4,50.4,30.03,SE,134,1.0,5.0,100,0.00,,,0.40,Wunderground v.1.15,2013-03-06 17:31:00,
2013-03-06 09:36:00,50.5,50.5,30.03,SE,139,0.0,5.0,100,0.00,,,0.40,Wunderground v.1.15,2013-03-06 17:36:00,
2013-03-06 09:41:00,50.7,50.7,30.03,ENE,73,2.0,5.0,100,0.00,,,0.40,Wunderground v.1.15,2013-03-06 17:41:00,
2013-03-06 09:46:00,50.8,50.8,30.03,East,89,2.0,5.0,100,0.00,,,0.40,Wunderground v.1.15,2013-03-06 17:46:00,
2013-03-06 09:51:00,51.0,51.0,30.03,East,84,4.0,5.0,100,0.00,,,0.40,Wunderground v.1.15,2013-03-06 17:51:00,
2013-03-06 09:56:00,51.1,51.1,30.03,ESE,110,2.0,5.0,100,0.00,,,0.40,Wunderground v.1.15,2013-03-06 17:56:00,
2013-03-06 10:01:00,51.4,51.4,30.03,East,98,4.0,4.0,100,0.00,,,0.40,Wunderground v.1.15,2013-03-06 18:01:00,
2013-03-06 10:06:00,51.4,51.4,30.03,North,356,2.0,7.0,100,0.00,,,0.40,Wunderground v.1.15,2013-03-06 18:06:00,
2013-03-06 10:11:00,51.7,51.7,30.03,East,100,0.0,2.0,100,0.00,,,0.40,Wunderground v.1.15,2013-03-06 18:11:00,
2013-03-06 10:16:00,52.0,52.0,30.03,East,79,3.0,3.0,100,0.00,,,0.40,Wunderground v.1.15,2013-03-06 18:16:00,
2013-03-06 10:21:00,52.0,52.0,30.03,NE,49,4.0,5.0,100,0.00,,,0.40,Wunderground v.1.15,2013-03-06 18:21:00,
2013-03-06 10:26:00,51.7,51.7,30.03,ENE,71,2.0,6.0,100,0.00,,,0.40,Wunderground v.1.15,2013-03-06 18:26:00,
2013-03-06 10:31:00,51.9,51.9,30.03,SE,131,0.0,3.0,100,0.00,,,0.40,Wunderground v.1.15,2013-03-06 18:31:00,
2013-03-06 10:36:00,52.3,52.3,30.03,East,80,0.0,3.0,100,0.00,,,0.40,Wunderground v.1.15,2013-03-06 18:36:00,
2013-03-06 10:41:00,52.3,52.3,30.03,East,82,4.0,7.0,100,0.00,,,0.40,Wunderground v.1.15,2013-03-06 18:41:00,
2013-03-06 10:46:00,52.2,52.2,30.03,NNE,19,0.0,9.0,100,0.00,,,0.40,Wunderground v.1.15,2013-03-06 18:46:00,
2013-03-06 10:51:00,52.3,52.3,30.03,ENE,65,0.0,2.0,100,0.00,,,0.40,Wunderground v.1.15,2013-03-06 18:51:00,
2013-03-06 10:56:00,52.2,52.2,30.03,NE,54,0.0,3.0,100,0.00,,,0.40,Wunderground v.1.15,2013-03-06 18:56:00,
2013-03-06 11:01:00,52.3,52.3,30.04,NNE,19,3.0,5.0,100,0.00,,,0.40,Wunderground v.1.15,2013-03-06 19:01:00,
2013-03-06 11:06:00,52.5,52.5,30.04,ESE,104,0.0,5.0,100,0.00,,,0.40,Wunderground v.1.15,2013-03-06 19:06:00,
2013-03-06 11:11:00,52.6,52.6,30.04,NE,41,2.0,3.0,100,0.00,,,0.40,Wunderground v.1.15,2013-03-06 19:11:00,
2013-03-06 11:16:00,53.1,53.1,30.04,WNW,290,0.0,4.0,100,0.00,,,0.40,Wunderground v.1.15,2013-03-06 19:16:00,
2013-03-06 11:21:00,53.1,53.1,30.04,ESE,122,2.0,4.0,100,0.00,,,0.40,Wunderground v.1.15,2013-03-06 19:21:00,
2013-03-06 11:26:00,52.8,52.8,30.04,NE,48,0.0,5.0,100,0.00,,,0.40,Wunderground v.1.15,2013-03-06 19:26:00,
2013-03-06 11:31:00,52.8,52.8,30.03,NNE,13,2.0,3.0,100,0.00,,,0.40,Wunderground v.1.15,2013-03-06 19:31:00,
2013-03-06 11:36:00,52.6,52.6,30.03,North,349,2.0,6.0,100,0.00,,,0.40,Wunderground v.1.15,2013-03-06 19:36:00,
2013-03-06 11:41:00,52.8,52.8,30.03,ENE,76,2.0,5.0,100,0.00,,,0.40,Wunderground v.1.15,2013-03-06 19:41:00,
2013-03-06 11:46:00,53.2,53.2,30.03,ESE,109,0.0,5.0,100,0.00,,,0.40,Wunderground v.1.15,2013-03-06 19:46:00,
2013-03-06 11:51:00,53.3,53.3,30.03,East,87,2.0,3.0,100,0.00,,,0.40,Wunderground v.1.15,2013-03-06 19:51:00,
2013-03-06 11:56:00,53.2,53.2,30.03,ESE,108,2.0,5.0,100,0.00,,,0.40,Wunderground v.1.15,2013-03-06 19:56:00,
2013-03-06 12:01:00,53.2,53.2,30.02,East,86,3.0,9.0,100,0.00,,,0.41,Wunderground v.1.15,2013-03-06 20:01:00,
2013-03-06 12:06:00,53.3,53.3,30.02,ESE,105,2.0,9.0,100,0.00,,,0.41,Wunderground v.1.15,2013-03-06 20:06:00,
2013-03-06 12:11:00,53.5,53.5,30.02,East,82,0.0,3.0,100,0.00,,,0.41,Wunderground v.1.15,2013-03-06 20:11:00,
2013-03-06 12:16:00,53.5,53.5,30.02,NNW,340,3.0,6.0,100,0.00,,,0.41,Wunderground v.1.15,2013-03-06 20:16:00,
2013-03-06 12:21:00,53.5,53.5,30.02,ENE,77,1.0,3.0,100,0.00,,,0.41,Wunderground v.1.15,2013-03-06 20:21:00,
2013-03-06 12:26:00,53.5,53.2,30.02,ENE,67,1.0,6.0,99,0.00,,,0.41,Wunderground v.1.15,2013-03-06 20:26:00,
2013-03-06 12:31:00,53.6,53.3,30.02,SE,146,3.0,3.0,99,0.00,,,0.41,Wunderground v.1.15,2013-03-06 20:31:00,
2013-03-06 12:36:00,53.3,52.8,30.02,NNW,344,0.0,6.0,98,0.00,,,0.41,Wunderground v.1.15,2013-03-06 20:36:00,
2013-03-06 12:41:00,53.3,52.8,30.02,SE,125,0.0,5.0,98,0.00,,,0.41,Wunderground v.1.15,2013-03-06 20:41:00,
2013-03-06 12:47:00,53.6,53.0,30.01,ESE,123,4.0,5.0,98,0.00,,,0.41,Wunderground v.1.15,2013-03-06 20:47:00,
2013-03-06 12:52:00,53.5,52.7,30.01,NNE,32,2.0,4.0,97,0.00,,,0.41,Wunderground v.1.15,2013-03-06 20:52:00,
2013-03-06 12:57:00,53.6,52.8,30.01,North,1,2.0,7.0,97,0.00,,,0.41,Wunderground v.1.15,2013-03-06 20:57:00,
2013-03-06 13:02:00,53.5,52.7,30.01,SE,126,2.0,5.0,97,0.00,,,0.41,Wunderground v.1.15,2013-03-06 21:02:00,
2013-03-06 13:07:00,53.3,52.5,30.01,NE,50,0.0,5.0,97,0.00,,,0.41,Wunderground v.1.15,2013-03-06 21:07:00,
2013-03-06 13:12:00,53.5,52.7,30.01,ENE,57,2.0,4.0,97,0.00,,,0.41,Wunderground v.1.15,2013-03-06 21:12:00,
2013-03-06 13:17:00,53.2,52.1,30.00,WNW,283,0.0,6.0,96,0.00,,,0.41,Wunderground v.1.15,2013-03-06 21:17:00,
2013-03-06 13:22:00,53.2,52.4,30.00,North,0,0.0,1.0,97,0.00,,,0.41,Wunderground v.1.15,2013-03-06 21:22:00,
2013-03-06 13:27:00,53.6,52.8,30.00,NE,53,0.0,4.0,97,0.00,,,0.41,Wunderground v.1.15,2013-03-06 21:27:00,
2013-03-06 13:32:00,53.9,53.1,30.00,ENE,67,0.0,2.0,97,0.00,,,0.41,Wunderground v.1.15,2013-03-06 21:32:00,
2013-03-06 13:37:00,53.9,53.1,30.00,South,184,0.0,5.0,97,0.00,,,0.41,Wunderground v.1.15,2013-03-06 21:37:00,
2013-03-06 13:42:00,53.9,52.8,30.00,NW,321,0.0,2.0,96,0.00,,,0.41,Wunderground v.1.15,2013-03-06 21:42:00,
2013-03-06 13:47:00,53.8,52.7,30.00,North,359,0.0,3.0,96,0.00,,,0.41,Wunderground v.1.15,2013-03-06 21:47:00,
2013-03-06 13:52:00,54.2,53.1,30.00,WNW,285,0.0,2.0,96,0.00,,,0.41,Wunderground v.1.15,2013-03-06 21:52:00,
2013-03-06 13:57:00,54.8,53.4,30.00,SE,124,0.0,4.0,95,0.00,,,0.41,Wunderground v.1.15,2013-03-06 21:57:00,
2013-03-06 14:02:00,54.8,52.5,29.99,East,94,3.0,4.0,92,0.00,,,0.41,Wunderground v.1.15,2013-03-06 22:02:00,
2013-03-06 14:07:00,54.7,52.4,29.99,ESE,114,2.0,4.0,92,0.00,,,0.41,Wunderground v.1.15,2013-03-06 22:07:00,
2013-03-06 14:12:00,54.4,52.1,29.99,SE,138,1.0,2.0,92,0.00,,,0.41,Wunderground v.1.15,2013-03-06 22:12:00,
2013-03-06 14:17:00,54.2,51.9,29.99,East,93,0.0,2.0,92,0.00,,,0.41,Wunderground v.1.15,2013-03-06 22:17:00,
2013-03-06 14:22:00,54.1,52.1,29.99,East,84,2.0,2.0,93,0.00,,,0.41,Wunderground v.1.15,2013-03-06 22:22:00,
2013-03-06 14:27:00,53.9,52.2,29.99,ESE,108,1.0,4.0,94,0.00,,,0.41,Wunderground v.1.15,2013-03-06 22:27:00,
2013-03-06 14:32:00,53.9,52.2,29.99,North,354,2.0,2.0,94,0.00,,,0.41,Wunderground v.1.15,2013-03-06 22:32:00,
2013-03-06 14:37:00,54.1,52.4,29.99,East,92,2.0,4.0,94,0.00,,,0.41,Wunderground v.1.15,2013-03-06 22:37:00,
2013-03-06 14:42:00,53.9,52.2,29.99,NNE,32,4.0,4.0,94,0.00,,,0.41,Wunderground v.1.15,2013-03-06 22:42:00,
2013-03-06 14:47:00,53.6,51.6,29.99,NE,42,2.0,5.0,93,0.00,,,0.41,Wunderground v.1.15,2013-03-06 22:47:00,
2013-03-06 14:52:00,53.6,51.9,29.99,ESE,118,3.0,3.0,94,0.00,,,0.41,Wunderground v.1.15,2013-03-06 22:52:00,
2013-03-06 14:57:00,53.6,51.9,29.99,SE,138,1.0,4.0,94,0.00,,,0.41,Wunderground v.1.15,2013-03-06 22:57:00,
2013-03-06 15:02:00,53.6,51.9,29.99,NW,316,3.0,4.0,94,0.00,,,0.41,Wunderground v.1.15,2013-03-06 23:02:00,
2013-03-06 15:07:00,53.6,52.2,29.99,West,274,0.0,4.0,95,0.00,,,0.41,Wunderground v.1.15,2013-03-06 23:07:00,
2013-03-06 15:12:00,53.5,52.1,29.99,North,359,0.0,5.0,95,0.00,,,0.41,Wunderground v.1.15,2013-03-06 23:12:00,
2013-03-06 15:17:00,53.5,52.1,30.00,NNE,20,0.0,5.0,95,0.00,,,0.41,Wunderground v.1.15,2013-03-06 23:17:00,
2013-03-06 15:22:00,53.5,52.1,30.00,SE,140,4.0,4.0,95,0.00,,,0.41,Wunderground v.1.15,2013-03-06 23:22:00,
2013-03-06 15:27:00,53.5,51.8,30.00,ENE,73,0.0,4.0,94,0.00,,,0.41,Wunderground v.1.15,2013-03-06 23:27:00,
2013-03-06 15:32:00,53.6,51.9,30.00,NW,312,0.0,2.0,94,0.00,,,0.41,Wunderground v.1.15,2013-03-06 23:32:00,
2013-03-06 15:37:00,53.6,51.6,30.00,SE,129,0.0,3.0,93,0.00,,,0.41,Wunderground v.1.15,2013-03-06 23:37:00,
2013-03-06 15:42:00,53.6,51.6,30.00,NW,318,3.0,4.0,93,0.00,,,0.41,Wunderground v.1.15,2013-03-06 23:42:00,
2013-03-06 15:47:00,53.5,51.2,29.99,NNE,18,0.0,4.0,92,0.00,,,0.41,Wunderground v.1.15,2013-03-06 23:47:00,
2013-03-06 15:52:00,53.8,51.5,29.99,SE,133,0.0,1.0,92,0.00,,,0.41,Wunderground v.1.15,2013-03-06 23:52:00,
2013-03-06 15:57:00,53.8,50.9,29.99,WSW,246,3.0,4.0,90,0.00,,,0.41,Wunderground v.1.15,2013-03-06 23:57:00,
2013-03-06 16:02:00,53.3,48.9,29.98,NNE,32,4.0,4.0,85,0.00,,,0.41,Wunderground v.1.15,2013-03-07 00:02:00,
2013-03-06 16:07:00,53.3,48.9,29.98,SSE,150,0.0,4.0,85,0.00,,,0.41,Wunderground v.1.15,2013-03-07 00:07:00,
2013-03-06 16:12:00,53.5,49.1,29.98,South,169,0.0,1.0,85,0.00,,,0.41,Wunderground v.1.15,2013-03-07 00:12:00,
2013-03-06 16:17:00,53.5,49.1,29.98,SSE,154,1.0,2.0,85,0.00,,,0.41,Wunderground v.1.15,2013-03-07 00:17:00,
2013-03-06 16:22:00,53.2,47.8,29.98,ENE,61,0.0,3.0,82,0.00,,,0.41,Wunderground v.1.15,2013-03-07 00:22:00,
2013-03-06 16:27:00,53.2,47.5,29.98,ENE,61,0.0,3.0,81,0.00,,,0.41,Wunderground v.1.15,2013-03-07 00:27:00,
2013-03-06 16:32:00,53.2,47.5,29.98,ENE,61,0.0,1.0,81,0.00,,,0.41,Wunderground v.1.15,2013-03-07 00:32:00,
2013-03-06 16:37:00,52.9,47.2,29.98,NNW,342,0.0,3.0,81,0.00,,,0.41,Wunderground v.1.15,2013-03-07 00:37:00,
2013-03-06 16:42:00,52.9,47.6,29.98,NNW,342,0.0,0.0,82,0.00,,,0.41,Wunderground v.1.15,2013-03-07 00:42:00,
2013-03-06 16:47:00,52.8,47.8,29.98,NNW,342,0.0,0.0,83,0.00,,,0.41,Wunderground v.1.15,2013-03-07 00:47:00,
2013-03-06 16:52:00,52.5,47.5,29.98,NNW,342,0.0,0.0,83,0.00,,,0.41,Wunderground v.1.15,2013-03-07 00:52:00,
2013-03-06 16:57:00,52.5,47.8,29.98,NNW,342,0.0,0.0,84,0.00,,,0.41,Wunderground v.1.15,2013-03-07 00:57:00,
2013-03-06 17:02:00,52.3,47.9,29.97,NNW,342,0.0,0.0,85,0.00,,,0.41,Wunderground v.1.15,2013-03-07 01:02:00,
2013-03-06 17:07:00,52.2,47.8,29.97,NNW,342,0.0,0.0,85,0.00,,,0.41,Wunderground v.1.15,2013-03-07 01:07:00,
2013-03-06 17:12:00,51.9,47.5,29.97,NNW,342,0.0,0.0,85,0.00,,,0.41,Wunderground v.1.15,2013-03-07 01:12:00,
2013-03-06 17:17:00,51.6,47.5,29.97,NNW,342,0.0,0.0,86,0.00,,,0.41,Wunderground v.1.15,2013-03-07 01:17:00,
2013-03-06 17:22:00,51.1,47.1,29.97,NNW,342,0.0,0.0,86,0.00,,,0.41,Wunderground v.1.15,2013-03-07 01:22:00,
2013-03-06 17:27:00,50.5,46.5,29.97,NNW,342,0.0,0.0,86,0.00,,,0.41,Wunderground v.1.15,2013-03-07 01:27:00,
2013-03-06 17:32:00,50.2,46.5,29.97,NNW,342,0.0,0.0,87,0.00,,,0.41,Wunderground v.1.15,2013-03-07 01:32:00,
2013-03-06 17:37:00,49.9,46.5,29.97,NNW,342,0.0,0.0,88,0.00,,,0.41,Wunderground v.1.15,2013-03-07 01:37:00,
2013-03-06 17:42:00,49.5,46.4,29.97,NNW,342,0.0,1.0,89,0.00,,,0.41,Wunderground v.1.15,2013-03-07 01:42:00,
2013-03-06 17:47:00,49.2,46.1,29.97,NNW,342,0.0,1.0,89,0.00,,,0.41,Wunderground v.1.15,2013-03-07 01:47:00,
2013-03-06 17:52:00,48.8,46.0,29.97,NNW,342,0.0,0.0,90,0.00,,,0.41,Wunderground v.1.15,2013-03-07 01:52:00,
2013-03-06 17:57:00,48.6,46.4,29.97,NNW,342,0.0,1.0,92,0.00,,,0.41,Wunderground v.1.15,2013-03-07 01:57:00,
2013-03-06 18:02:00,48.5,46.3,29.97,NNW,342,0.0,1.0,92,0.00,,,0.41,Wunderground v.1.15,2013-03-07 02:02:00,
2013-03-06 18:07:00,48.3,46.4,29.97,NNW,342,0.0,1.0,93,0.00,,,0.41,Wunderground v.1.15,2013-03-07 02:07:00,
2013-03-06 18:12:00,48.3,46.4,29.97,NNW,342,0.0,1.0,93,0.00,,,0.41,Wunderground v.1.15,2013-03-07 02:12:00,
2013-03-06 18:17:00,48.2,46.6,29.97,NNW,342,0.0,1.0,94,0.00,,,0.41,Wunderground v.1.15,2013-03-07 02:17:00,
2013-03-06 18:22:00,48.2,46.6,29.97,NNW,342,0.0,0.0,94,0.00,,,0.41,Wunderground v.1.15,2013-03-07 02:22:00,
2013-03-06 18:27:00,48.0,46.4,29.97,NNW,342,0.0,0.0,94,0.00,,,0.41,Wunderground v.1.15,2013-03-07 02:27:00,
2013-03-06 18:32:00,48.0,46.6,29.97,NNW,342,0.0,0.0,95,0.00,,,0.41,Wunderground v.1.15,2013-03-07 02:32:00,
2013-03-06 18:37:00,47.9,46.5,29.97,NNW,342,0.0,1.0,95,0.00,,,0.41,Wunderground v.1.15,2013-03-07 02:37:00,
2013-03-06 18:42:00,47.9,46.5,29.97,NNW,342,0.0,0.0,95,0.00,,,0.41,Wunderground v.1.15,2013-03-07 02:42:00,
2013-03-06 18:47:00,47.9,46.5,29.97,NNW,342,0.0,1.0,95,0.00,,,0.41,Wunderground v.1.15,2013-03-07 02:47:00,
2013-03-06 18:52:00,47.7,46.3,29.97,NNW,342,0.0,1.0,95,0.00,,,0.41,Wunderground v.1.15,2013-03-07 02:52:00,
2013-03-06 18:57:00,47.7,46.3,29.97,NNW,342,0.0,1.0,95,0.00,,,0.41,Wunderground v.1.15,2013-03-07 02:57:00,
2013-03-06 19:02:00,47.6,46.2,29.97,NNW,342,0.0,0.0,95,0.00,,,0.41,Wunderground v.1.15,2013-03-07 03:02:00,
2013-03-06 19:07:00,47.6,46.5,29.97,NNW,342,0.0,1.0,96,0.00,,,0.41,Wunderground v.1.15,2013-03-07 03:07:00,
2013-03-06 19:12:00,47.4,46.3,29.97,NNW,342,0.0,0.0,96,0.00,,,0.41,Wunderground v.1.15,2013-03-07 03:12:00,
2013-03-06 19:17:00,47.4,46.3,29.97,NNW,342,0.0,0.0,96,0.00,,,0.41,Wunderground v.1.15,2013-03-07 03:17:00,
2013-03-06 19:22:00,47.3,46.2,29.97,NNW,342,0.0,2.0,96,0.00,,,0.41,Wunderground v.1.15,2013-03-07 03:22:00,
2013-03-06 19:27:00,47.3,46.2,29.97,NNW,342,0.0,2.0,96,0.00,,,0.41,Wunderground v.1.15,2013-03-07 03:27:00,
2013-03-06 19:32:00,47.1,46.0,29.97,NNW,342,0.0,0.0,96,0.00,,,0.41,Wunderground v.1.15,2013-03-07 03:32:00,
2013-03-06 19:37:00,47.1,46.0,29.97,NNW,342,0.0,1.0,96,0.00,,,0.41,Wunderground v.1.15,2013-03-07 03:37:00,
2013-03-06 19:42:00,47.1,46.0,29.97,NNW,342,0.0,0.0,96,0.00,,,0.41,Wunderground v.1.15,2013-03-07 03:42:00,
2013-03-06 19:47:00,47.0,45.9,29.97,NNW,342,0.0,0.0,96,0.00,,,0.41,Wunderground v.1.15,2013-03-07 03:47:00,
2013-03-06 19:52:00,46.8,46.0,29.97,NNW,342,0.0,0.0,97,0.00,,,0.41,Wunderground v.1.15,2013-03-07 03:52:00,
2013-03-06 19:57:00,46.7,45.9,29.97,NNW,342,0.0,0.0,97,0.00,,,0.41,Wunderground v.1.15,2013-03-07 03:57:00,
2013-03-06 20:03:00,46.5,45.7,29.97,NNW,342,0.0,0.0,97,0.00,,,0.41,Wunderground v.1.15,2013-03-07 04:03:00,
2013-03-06 20:07:00,46.4,45.6,29.97,NNW,342,0.0,0.0,97,0.00,,,0.41,Wunderground v.1.15,2013-03-07 04:07:00,
2013-03-06 20:13:00,46.2,45.4,29.97,NNW,342,0.0,1.0,97,0.00,,,0.41,Wunderground v.1.15,2013-03-07 04:13:00,
2013-03-06 20:18:00,46.1,45.3,29.96,NNW,342,0.0,1.0,97,0.00,,,0.41,Wunderground v.1.15,2013-03-07 04:18:00,
2013-03-06 20:23:00,46.1,45.3,29.96,NNW,342,0.0,0.0,97,0.00,,,0.41,Wunderground v.1.15,2013-03-07 04:23:00,
2013-03-06 20:28:00,46.0,45.5,29.96,NNW,342,0.0,0.0,98,0.00,,,0.41,Wunderground v.1.15,2013-03-07 04:28:00,
2013-03-06 20:33:00,46.0,45.5,29.96,NNW,342,0.0,0.0,98,0.00,,,0.41,Wunderground v.1.15,2013-03-07 04:33:00,
2013-03-06 20:38:00,45.8,45.3,29.96,NNW,342,0.0,0.0,98,0.00,,,0.41,Wunderground v.1.15,2013-03-07 04:38:00,
2013-03-06 20:43:00,45.7,45.2,29.96,NNW,342,0.0,0.0,98,0.00,,,0.41,Wunderground v.1.15,2013-03-07 04:43:00,
2013-03-06 20:48:00,45.7,45.4,29.97,NNW,342,0.0,0.0,99,0.00,,,0.41,Wunderground v.1.15,2013-03-07 04:48:00,
2013-03-06 20:53:00,45.5,45.2,29.97,NNW,342,0.0,0.0,99,0.00,,,0.41,Wunderground v.1.15,2013-03-07 04:53:00,
2013-03-06 20:58:00,45.4,45.1,29.97,NNW,342,0.0,0.0,99,0.00,,,0.41,Wunderground v.1.15,2013-03-07 04:58:00,
2013-03-06 21:00:00,45.4,45.1,29.97,NNW,342,0.0,0.0,99,0.00,,,0.41,Wunderground v.1.15,2013-03-07 05:00:00,
2013-03-06 21:05:00,45.2,44.9,29.97,NNW,342,1.0,1.0,99,0.00,,,0.41,Wunderground v.1.15,2013-03-07 05:05:00,
2013-03-06 21:10:00,45.2,44.9,29.97,NNW,342,0.0,0.0,99,0.00,,,0.41,Wunderground v.1.15,2013-03-07 05:10:00,
2013-03-06 21:15:00,45.2,44.9,29.96,NNW,342,0.0,0.0,99,0.00,,,0.41,Wunderground v.1.15,2013-03-07 05:15:00,
2013-03-06 21:20:00,45.1,45.1,29.96,NNW,342,0.0,0.0,100,0.00,,,0.41,Wunderground v.1.15,2013-03-07 05:20:00,
2013-03-06 21:25:00,44.9,44.6,29.96,NNW,342,0.0,0.0,99,0.00,,,0.41,Wunderground v.1.15,2013-03-07 05:25:00,
2013-03-06 21:30:00,44.9,44.9,29.97,NNW,342,0.0,0.0,100,0.00,,,0.41,Wunderground v.1.15,2013-03-07 05:30:00,
2013-03-06 21:35:00,44.8,44.8,29.97,NNW,342,0.0,0.0,100,0.00,,,0.41,Wunderground v.1.15,2013-03-07 05:35:00,
2013-03-06 21:40:00,44.6,44.6,29.97,NNW,342,0.0,0.0,100,0.00,,,0.41,Wunderground v.1.15,2013-03-07 05:40:00,
2013-03-06 21:45:00,44.3,44.3,29.97,NNW,342,0.0,0.0,100,0.00,,,0.41,Wunderground v.1.15,2013-03-07 05:45:00,
2013-03-06 21:50:00,44.2,44.2,29.97,NNW,342,0.0,0.0,100,0.00,,,0.41,Wunderground v.1.15,2013-03-07 05:50:00,
2013-03-06 21:55:00,44.1,44.1,29.97,NNW,342,0.0,0.0,100,0.00,,,0.41,Wunderground v.1.15,2013-03-07 05:55:00,
2013-03-06 22:00:00,43.9,43.9,29.97,NNW,342,0.0,0.0,100,0.00,,,0.41,Wunderground v.1.15,2013-03-07 06:00:00,
2013-03-06 22:05:00,43.8,43.8,29.97,NNW,342,0.0,0.0,100,0.00,,,0.41,Wunderground v.1.15,2013-03-07 06:05:00,
2013-03-06 22:10:00,43.6,43.6,29.97,NNW,342,0.0,0.0,100,0.00,,,0.41,Wunderground v.1.15,2013-03-07 06:10:00,
2013-03-06 22:15:00,43.6,43.6,29.96,NNW,342,1.0,2.0,100,0.00,,,0.41,Wunderground v.1.15,2013-03-07 06:15:00,
2013-03-06 22:20:00,43.6,43.6,29.96,NNW,342,0.0,0.0,100,0.00,,,0.41,Wunderground v.1.15,2013-03-07 06:20:00,
2013-03-06 22:25:00,43.5,43.5,29.96,NNW,342,0.0,0.0,100,0.00,,,0.41,Wunderground v.1.15,2013-03-07 06:25:00,
2013-03-06 22:30:00,43.5,43.5,29.95,NNW,342,0.0,0.0,100,0.00,,,0.41,Wunderground v.1.15,2013-03-07 06:30:00,
2013-03-06 22:35:00,43.3,43.3,29.95,NNW,342,0.0,0.0,100,0.00,,,0.41,Wunderground v.1.15,2013-03-07 06:35:00,
2013-03-06 22:40:00,43.1,43.1,29.95,NNW,342,0.0,0.0,100,0.00,,,0.41,Wunderground v.1.15,2013-03-07 06:40:00,
2013-03-06 22:45:00,42.9,42.9,29.96,NNW,342,0.0,2.0,100,0.00,,,0.41,Wunderground v.1.15,2013-03-07 06:45:00,
2013-03-06 22:50:00,42.9,42.9,29.96,NNW,342,0.0,0.0,100,0.00,,,0.41,Wunderground v.1.15,2013-03-07 06:50:00,
2013-03-06 22:55:00,42.8,42.8,29.96,NNW,342,0.0,0.0,100,0.00,,,0.41,Wunderground v.1.15,2013-03-07 06:55:00,
2013-03-06 23:00:00,42.6,42.6,29.95,NNW,342,0.0,0.0,100,0.00,,,0.41,Wunderground v.1.15,2013-03-07 07:00:00,
2013-03-06 23:05:00,42.6,42.6,29.95,NNW,342,0.0,0.0,100,0.00,,,0.41,Wunderground v.1.15,2013-03-07 07:05:00,
2013-03-06 23:10:00,42.8,42.8,29.95,NNW,342,0.0,0.0,100,0.00,,,0.41,Wunderground v.1.15,2013-03-07 07:10:00,
2013-03-06 23:15:00,42.9,42.9,29.95,NNW,342,0.0,0.0,100,0.00,,,0.41,Wunderground v.1.15,2013-03-07 07:15:00,
2013-03-06 23:20:00,42.8,42.8,29.95,NNW,342,0.0,0.0,100,0.00,,,0.41,Wunderground v.1.15,2013-03-07 07:20:00,
2013-03-06 23:25:00,42.6,42.6,29.95,NNW,342,0.0,0.0,100,0.00,,,0.41,Wunderground v.1.15,2013-03-07 07:25:00,
2013-03-06 23:30:00,42.5,42.5,29.95,NNW,342,0.0,0.0,100,0.00,,,0.41,Wunderground v.1.15,2013-03-07 07:30:00,
2013-03-06 23:35:00,42.5,42.5,29.95,NNW,342,0.0,1.0,100,0.00,,,0.41,Wunderground v.1.15,2013-03-07 07:35:00,
2013-03-06 23:40:00,42.6,42.6,29.95,NNW,342,0.0,0.0,100,0.00,,,0.41,Wunderground v.1.15,2013-03-07 07:40:00,
2013-03-06 23:45:00,42.6,42.6,29.94,NNW,342,0.0,0.0,100,0.00,,,0.41,Wunderground v.1.15,2013-03-07 07:45:00,
2013-03-06 23:50:00,42.5,42.5,29.94,NNW,342,0.0,0.0,100,0.00,,,0.41,Wunderground v.1.15,2013-03-07 07:50:00,
2013-03-06 23:55:00,42.2,42.2,29.94,NNW,342,0.0,0.0,100,0.00,,,0.41,Wunderground v.1.15,2013-03-07 07:55:00,